Time;durP1;ratioP1;P1;durP2;ratioP2;P2;SDS_P1;SDS_P2;PMS_P1;PMS_P2;Temp;Humidity;BMP_temperature;BMP_pressure;BME280_temperature;BME280_humidity;BME280_pressure;Samples;Min_cycle;Max_cycle;Signal;HPM_P1;HPM_P2
2021/08/02 00:01:53;;;;;;;3.67;1.50;;;;;;;;;;5071051;28;20028;-80
2021/08/02 00:04:24;;;;;;;4.70;1.60;;;16.70;99.90;;;;;;5067887;28;20025;-82
2021/08/02 00:06:53;;;;;;;;;;;16.80;99.90;;;;;;5073705;28;20024;-81
2021/08/02 00:09:33;;;;;;;4.40;1.65;;;16.60;99.90;;;;;;5065491;28;19904;-83
2021/08/02 00:12:09;;;;;;;;;;;16.70;99.90;;;;;;5074150;28;20024;-79
2021/08/02 00:14:36;;;;;;;1.92;1.23;;;16.70;99.90;;;;;;5080870;28;20023;-81
2021/08/02 00:17:05;;;;;;;5.65;1.40;;;16.60;99.90;;;;;;5068707;28;20020;-81
2021/08/02 00:19:31;;;;;;;5.13;1.85;;;16.60;99.90;;;;;;5068359;28;20420;-86
2021/08/02 00:21:57;;;;;;;2.85;1.50;;;17.10;99.90;;;;;;5070867;28;20052;-80
2021/08/02 00:24:24;;;;;;;3.05;1.30;;;16.50;99.90;;;;;;5086980;28;20024;-80
2021/08/02 00:26:53;;;;;;;5.07;1.63;;;16.40;99.90;;;;;;5075721;28;20025;-79
2021/08/02 00:29:20;;;;;;;4.97;1.98;;;16.30;99.90;;;;;;5068336;28;20497;-83
2021/08/02 00:31:46;;;;;;;3.05;1.80;;;16.30;99.90;;;;;;5074038;28;20020;-83
2021/08/02 00:34:12;;;;;;;4.35;1.70;;;18.70;99.90;;;;;;5070391;28;20024;-81
2021/08/02 00:36:46;;;;;;;3.47;1.67;;;16.50;99.90;;;;;;5073612;28;20017;-83
2021/08/02 00:39:50;;;;;;;3.75;1.85;;;18.40;99.90;;;;;;5070306;28;20083;-80
2021/08/02 00:42:56;;;;;;;3.40;1.88;;;16.50;99.90;;;;;;5073773;28;20024;-82
2021/08/02 00:45:30;;;;;;;6.22;2.00;;;16.50;99.90;;;;;;5065923;28;20055;-82
2021/08/02 00:48:09;;;;;;;2.83;1.40;;;16.50;99.90;;;;;;5072388;28;20056;-81
2021/08/02 00:50:37;;;;;;;4.45;2.10;;;16.50;99.90;;;;;;5067997;28;20024;-80
2021/08/02 00:53:05;;;;;;;5.95;2.58;;;17.20;99.90;;;;;;5069530;28;20458;-80
2021/08/02 00:55:34;;;;;;;4.97;2.10;;;16.50;99.90;;;;;;5076194;28;20047;-82
2021/08/02 00:58:04;;;;;;;3.90;1.90;;;18.10;99.90;;;;;;5067432;28;20029;-82
2021/08/02 01:00:30;;;;;;;4.88;2.40;;;;;;;;;;5068615;28;20028;-79
2021/08/02 01:03:01;;;;;;;3.97;2.03;;;16.50;99.90;;;;;;5069574;28;20037;-78
2021/08/02 01:05:27;;;;;;;4.90;2.13;;;16.60;99.90;;;;;;5071573;28;20027;-81
2021/08/02 01:08:00;;;;;;;3.92;1.95;;;16.40;99.90;;;;;;5069876;28;20017;-83
2021/08/02 01:10:27;;;;;;;10.25;3.75;;;16.40;99.90;;;;;;5066315;28;20036;-82
2021/08/02 01:12:57;;;;;;;4.57;2.00;;;16.40;99.90;;;;;;5065879;28;20030;-81
2021/08/02 01:15:23;;;;;;;9.60;4.18;;;16.50;99.90;;;;;;5069946;28;20029;-81
2021/08/02 01:17:49;;;;;;;4.53;1.95;;;16.50;99.90;;;;;;5068537;28;20510;-80
2021/08/02 01:20:16;;;;;;;3.67;2.00;;;16.50;99.90;;;;;;5075234;28;20028;-84
2021/08/02 01:22:43;;;;;;;4.45;1.90;;;16.50;99.90;;;;;;5069800;28;20047;-83
2021/08/02 01:25:33;;;;;;;3.20;1.75;;;16.40;99.90;;;;;;5067300;28;20029;-82
2021/08/02 01:28:14;;;;;;;;;;;16.50;99.90;;;;;;5066029;28;20025;-82
2021/08/02 01:30:48;;;;;;;3.35;1.80;;;16.50;99.90;;;;;;5066410;28;19913;-80
2021/08/02 01:33:28;;;;;;;3.00;1.70;;;16.50;99.90;;;;;;5064312;28;20028;-82
2021/08/02 01:36:02;;;;;;;3.33;2.28;;;16.50;99.90;;;;;;5072342;28;20062;-82
2021/08/02 01:38:29;;;;;;;5.57;2.10;;;16.40;99.90;;;;;;5066456;28;20024;-80
2021/08/02 01:40:55;;;;;;;3.45;1.90;;;17.70;99.90;;;;;;5065368;28;20032;-81
2021/08/02 01:43:21;;;;;;;3.53;2.10;;;16.40;99.90;;;;;;5074641;28;20108;-83
2021/08/02 01:46:08;;;;;;;5.85;1.85;;;17.90;99.90;;;;;;5064445;28;20081;-83
2021/08/02 01:48:57;;;;;;;4.40;2.40;;;16.40;99.90;;;;;;5071940;28;20029;-81
2021/08/02 01:51:51;;;;;;;4.70;2.03;;;16.30;99.90;;;;;;5064101;28;20060;-79
2021/08/02 01:54:39;;;;;;;3.25;1.75;;;16.50;99.90;;;;;;5065916;28;20521;-83
2021/08/02 01:57:11;;;;;;;4.57;2.00;;;16.30;99.90;;;;;;5075959;28;20036;-80
2021/08/02 01:59:46;;;;;;;2.50;1.70;;;16.20;99.90;;;;;;5066883;28;20032;-80
2021/08/02 02:02:16;;;;;;;4.82;2.10;;;16.20;99.90;;;;;;5073036;28;20056;-82
2021/08/02 02:04:41;;;;;;;4.93;2.40;;;16.20;99.90;;;;;;5069874;28;20779;-79
2021/08/02 02:07:10;;;;;;;3.83;2.00;;;16.10;99.90;;;;;;5063421;28;20072;-79
2021/08/02 02:09:38;;;;;;;2.83;1.80;;;16.10;99.90;;;;;;5067249;28;20115;-81
2021/08/02 02:12:04;;;;;;;4.75;2.10;;;16.40;99.90;;;;;;5072012;28;20032;-82
2021/08/02 02:14:35;;;;;;;4.05;2.03;;;16.20;99.90;;;;;;5077236;28;20047;-82
2021/08/02 02:17:03;;;;;;;4.68;2.00;;;16.20;99.90;;;;;;5070146;28;20495;-79
2021/08/02 02:19:30;;;;;;;5.00;2.13;;;16.20;99.90;;;;;;5075339;28;20051;-82
2021/08/02 02:21:57;;;;;;;3.20;1.90;;;17.30;99.90;;;;;;5074186;28;20116;-80
2021/08/02 02:24:25;;;;;;;3.70;1.90;;;17.90;99.90;;;;;;5075807;28;20025;-82
2021/08/02 02:26:53;;;;;;;4.03;1.83;;;16.20;99.90;;;;;;5070986;28;20024;-82
2021/08/02 02:29:19;;;;;;;3.60;2.05;;;16.20;99.90;;;;;;5072665;28;20111;-82
2021/08/02 02:31:47;;;;;;;3.20;1.80;;;16.20;99.90;;;;;;5073243;28;20481;-82
2021/08/02 02:34:14;;;;;;;5.95;2.05;;;16.20;99.90;;;;;;5079294;28;20081;-81
2021/08/02 02:36:41;;;;;;;3.25;1.77;;;;;;;;;;5076129;28;20033;-81
2021/08/02 02:39:07;;;;;;;4.97;1.88;;;16.20;99.90;;;;;;5069923;28;20471;-80
2021/08/02 02:41:33;;;;;;;4.07;1.98;;;16.20;99.90;;;;;;5069916;28;20021;-80
2021/08/02 02:44:01;;;;;;;3.30;1.95;;;16.20;99.90;;;;;;5068236;28;20402;-84
2021/08/02 02:46:28;;;;;;;4.35;2.00;;;17.60;99.90;;;;;;5071046;28;20021;-80
2021/08/02 02:48:55;;;;;;;5.00;2.03;;;16.20;99.90;;;;;;5069333;28;20025;-81
2021/08/02 02:51:21;;;;;;;2.53;1.77;;;17.40;99.90;;;;;;5071839;28;20033;-82
2021/08/02 02:53:48;;;;;;;2.15;1.63;;;16.10;99.90;;;;;;5074851;28;20040;-82
2021/08/02 02:56:16;;;;;;;6.63;2.63;;;16.10;99.90;;;;;;5068926;28;20035;-81
2021/08/02 02:58:42;;;;;;;2.83;1.80;;;16.10;99.90;;;;;;5071906;28;20025;-83
2021/08/02 03:01:09;;;;;;;5.47;2.10;;;18.20;99.90;;;;;;5066709;28;20028;-82
2021/08/02 03:03:40;;;;;;;5.65;2.13;;;16.00;99.90;;;;;;5070791;28;20032;-82
2021/08/02 03:06:06;;;;;;;6.90;2.10;;;16.00;99.90;;;;;;5067662;28;20028;-82
2021/08/02 03:08:34;;;;;;;4.00;2.20;;;15.90;99.90;;;;;;5072628;28;20113;-81
2021/08/02 03:11:01;;;;;;;2.95;1.70;;;15.90;99.90;;;;;;5065620;28;20169;-81
2021/08/02 03:13:26;;;;;;;4.65;2.17;;;15.90;99.90;;;;;;5076105;28;20032;-84
2021/08/02 03:15:52;;;;;;;2.95;1.88;;;15.90;99.90;;;;;;5071743;28;20028;-84
2021/08/02 03:18:18;;;;;;;4.35;1.92;;;16.40;99.90;;;;;;5071128;28;20047;-82
2021/08/02 03:20:44;;;;;;;3.65;2.00;;;;;;;;;;5073468;28;20088;-79
2021/08/02 03:23:13;;;;;;;3.95;2.03;;;;;;;;;;5070369;28;20024;-82
2021/08/02 03:25:48;;;;;;;3.00;1.80;;;15.90;99.90;;;;;;5071542;28;20024;-82
2021/08/02 03:28:32;;;;;;;5.20;2.28;;;15.90;99.90;;;;;;5072561;28;20039;-84
2021/08/02 03:31:00;;;;;;;3.47;2.15;;;15.90;99.90;;;;;;5070478;28;20494;-85
2021/08/02 03:33:32;;;;;;;5.25;3.10;;;16.80;99.90;;;;;;5076366;28;20032;-83
2021/08/02 03:36:03;;;;;;;4.20;2.40;;;15.90;99.90;;;;;;5066738;28;20059;-82
2021/08/02 03:38:30;;;;;;;6.53;2.50;;;15.90;99.90;;;;;;5067087;28;20510;-83
2021/08/02 03:40:57;;;;;;;5.20;2.40;;;16.60;99.90;;;;;;5067828;28;20134;-82
2021/08/02 03:43:24;;;;;;;3.90;2.13;;;17.30;99.90;;;;;;5071765;28;20032;-81
2021/08/02 03:45:51;;;;;;;5.07;2.10;;;15.90;99.90;;;;;;5071200;28;20127;-82
2021/08/02 03:48:20;;;;;;;4.85;2.08;;;15.90;99.90;;;;;;5075375;28;20016;-84
2021/08/02 03:50:46;;;;;;;18.25;3.08;;;16.10;99.90;;;;;;5078464;28;20043;-84
2021/08/02 03:53:12;;;;;;;3.58;2.22;;;15.80;99.90;;;;;;5073208;28;20131;-83
2021/08/02 03:55:37;;;;;;;4.82;2.50;;;18.20;99.90;;;;;;5073535;28;20028;-85
2021/08/02 03:58:05;;;;;;;5.05;2.00;;;15.80;99.90;;;;;;5071485;28;20537;-83
2021/08/02 04:00:30;;;;;;;3.78;2.00;;;17.20;99.90;;;;;;5067629;28;20033;-82
2021/08/02 04:02:56;;;;;;;4.32;2.22;;;15.80;99.90;;;;;;5069515;28;20033;-82
2021/08/02 04:05:22;;;;;;;7.45;2.83;;;15.80;99.90;;;;;;5070618;28;20404;-83
2021/08/02 04:07:47;;;;;;;3.55;2.05;;;15.80;99.90;;;;;;5068208;28;20029;-83
2021/08/02 04:10:14;;;;;;;3.95;2.42;;;17.00;99.90;;;;;;5066833;28;20066;-83
2021/08/02 04:12:40;;;;;;;4.95;2.60;;;17.10;99.90;;;;;;5071195;28;20554;-78
2021/08/02 04:15:10;;;;;;;5.60;2.72;;;17.20;99.90;;;;;;5071282;28;20060;-80
2021/08/02 04:17:36;;;;;;;8.32;2.78;;;15.80;99.90;;;;;;5063821;28;20036;-82
2021/08/02 04:20:05;;;;;;;4.20;2.47;;;15.80;99.90;;;;;;5067288;28;20047;-82
2021/08/02 04:22:30;;;;;;;5.35;2.70;;;15.90;99.90;;;;;;5071084;28;20053;-82
2021/08/02 04:24:56;;;;;;;6.85;3.00;;;16.80;99.90;;;;;;5072563;28;20028;-81
2021/08/02 04:27:21;;;;;;;7.20;3.47;;;15.80;99.90;;;;;;5070626;28;20027;-83
2021/08/02 04:29:47;;;;;;;6.28;3.05;;;17.50;99.90;;;;;;5080559;28;20025;-81
2021/08/02 04:32:13;;;;;;;5.10;2.58;;;15.80;99.90;;;;;;5079281;28;20025;-80
2021/08/02 04:34:38;;;;;;;6.13;2.53;;;19.20;99.90;;;;;;5067155;28;20024;-79
2021/08/02 04:37:04;;;;;;;5.40;2.58;;;18.00;99.90;;;;;;5070505;28;20115;-81
2021/08/02 04:39:29;;;;;;;4.43;2.90;;;15.80;99.90;;;;;;5069760;28;20521;-78
2021/08/02 04:41:55;;;;;;;7.13;2.60;;;15.80;99.90;;;;;;5058994;28;20033;-81
2021/08/02 04:44:21;;;;;;;5.82;2.67;;;15.80;99.90;;;;;;5066559;28;20024;-79
2021/08/02 04:46:46;;;;;;;5.18;2.40;;;17.10;99.90;;;;;;5073487;28;20110;-83
2021/08/02 04:49:12;;;;;;;4.38;2.50;;;15.80;99.90;;;;;;5071290;28;20056;-80
2021/08/02 04:51:38;;;;;;;4.97;2.70;;;17.50;99.90;;;;;;5070961;28;20025;-82
2021/08/02 04:54:03;;;;;;;4.25;2.53;;;16.00;99.90;;;;;;5066481;28;20035;-81
2021/08/02 04:56:29;;;;;;;5.93;2.92;;;16.70;99.90;;;;;;5066115;28;20173;-81
2021/08/02 04:58:54;;;;;;;5.25;2.88;;;17.80;99.90;;;;;;5073131;28;20495;-82
2021/08/02 05:01:20;;;;;;;6.15;2.85;;;17.50;99.90;;;;;;5067873;28;20077;-79
2021/08/02 05:03:46;;;;;;;4.95;3.10;;;17.50;99.90;;;;;;5067181;28;20029;-87
2021/08/02 05:06:11;;;;;;;4.57;2.70;;;15.80;99.90;;;;;;5066452;28;20021;-82
2021/08/02 05:08:37;;;;;;;5.40;2.70;;;16.40;99.90;;;;;;5067056;28;20521;-78
2021/08/02 05:11:03;;;;;;;4.82;3.10;;;16.90;99.90;;;;;;5068862;28;20024;-79
2021/08/02 05:13:29;;;;;;;5.90;3.55;;;;;;;;;;5068241;28;20021;-80
2021/08/02 05:15:55;;;;;;;10.25;4.85;;;15.80;99.90;;;;;;5070169;28;20029;-81
2021/08/02 05:18:21;;;;;;;9.50;5.50;;;15.80;99.90;;;;;;5072164;28;20029;-82
2021/08/02 05:20:46;;;;;;;5.90;4.63;;;15.80;99.90;;;;;;5066847;28;20040;-82
2021/08/02 05:23:12;;;;;;;7.50;4.88;;;15.80;99.90;;;;;;5067724;28;20159;-81
2021/08/02 05:25:38;;;;;;;8.45;4.85;;;;;;;;;;5065308;28;20055;-79
2021/08/02 05:28:04;;;;;;;7.78;5.13;;;15.80;99.90;;;;;;5066367;28;20040;-82
2021/08/02 05:30:30;;;;;;;6.55;4.65;;;15.80;99.90;;;;;;5065439;28;20051;-80
2021/08/02 05:32:56;;;;;;;7.35;4.40;;;18.10;99.90;;;;;;5069259;28;20029;-82
2021/08/02 05:35:21;;;;;;;5.35;3.75;;;15.90;99.90;;;;;;5067677;28;20044;-80
2021/08/02 05:37:47;;;;;;;6.43;3.90;;;15.80;99.90;;;;;;5071224;28;20105;-78
2021/08/02 05:40:13;;;;;;;7.03;4.30;;;16.00;99.90;;;;;;5066207;28;20100;-83
2021/08/02 05:42:39;;;;;;;4.95;3.45;;;16.00;99.90;;;;;;5072991;28;20025;-82
2021/08/02 05:45:07;;;;;;;5.40;3.65;;;17.10;99.90;;;;;;5071552;28;20566;-81
2021/08/02 05:47:33;;;;;;;6.85;3.90;;;16.10;99.90;;;;;;5068207;28;20017;-79
2021/08/02 05:49:59;;;;;;;6.25;3.60;;;17.50;99.90;;;;;;5071208;28;20032;-81
2021/08/02 05:52:24;;;;;;;6.07;3.55;;;16.10;99.90;;;;;;5065227;28;20151;-80
2021/08/02 05:54:50;;;;;;;5.00;3.63;;;16.10;99.90;;;;;;5067298;28;20517;-80
2021/08/02 05:57:20;;;;;;;6.78;3.15;;;16.20;99.90;;;;;;5067496;28;20657;-79
2021/08/02 05:59:46;;;;;;;4.82;2.90;;;;;;;;;;5056342;28;20033;-80
2021/08/02 06:02:12;;;;;;;5.63;2.80;;;16.20;99.90;;;;;;5055241;28;20032;-78
2021/08/02 06:04:37;;;;;;;7.40;3.85;;;16.20;99.90;;;;;;5061094;28;20081;-81
2021/08/02 06:07:03;;;;;;;5.72;3.28;;;17.70;99.90;;;;;;5061663;28;20079;-80
2021/08/02 06:09:29;;;;;;;6.28;3.20;;;16.30;99.90;;;;;;5069483;28;20123;-79
2021/08/02 06:11:54;;;;;;;4.30;2.90;;;17.10;99.90;;;;;;5061963;28;20518;-79
2021/08/02 06:14:20;;;;;;;4.35;2.80;;;17.80;99.90;;;;;;5062409;28;20044;-82
2021/08/02 06:16:46;;;;;;;6.75;3.47;;;18.20;99.90;;;;;;5066444;28;20413;-83
2021/08/02 06:19:11;;;;;;;10.48;4.30;;;17.50;99.90;;;;;;5068455;28;20539;-81
2021/08/02 06:21:37;;;;;;;5.65;3.38;;;16.80;99.90;;;;;;5065504;28;20025;-80
2021/08/02 06:24:03;;;;;;;6.50;4.50;;;16.40;99.90;;;;;;5057343;28;20043;-81
2021/08/02 06:26:30;;;;;;;7.60;4.72;;;16.40;99.90;;;;;;5067191;28;20111;-80
2021/08/02 06:28:56;;;;;;;5.10;3.70;;;;;;;;;;5057156;28;20478;-79
2021/08/02 06:31:22;;;;;;;6.70;4.20;;;16.50;99.90;;;;;;5057537;28;20624;-82
2021/08/02 06:33:47;;;;;;;10.00;4.68;;;16.50;99.90;;;;;;5064737;28;20028;-79
2021/08/02 06:36:16;;;;;;;7.43;5.43;;;16.60;99.90;;;;;;5061997;28;20055;-83
2021/08/02 06:38:41;;;;;;;7.97;5.93;;;17.20;99.90;;;;;;5060803;28;20079;-82
2021/08/02 06:41:08;;;;;;;8.00;5.72;;;16.70;99.90;;;;;;5057266;28;20033;-85
2021/08/02 06:43:34;;;;;;;7.80;6.18;;;16.70;99.90;;;;;;5064074;28;20020;-82
2021/08/02 06:45:59;;;;;;;8.07;6.40;;;16.60;99.90;;;;;;5061600;28;20031;-82
2021/08/02 06:48:25;;;;;;;9.48;6.80;;;16.60;99.90;;;;;;5062625;28;20479;-80
2021/08/02 06:50:51;;;;;;;8.85;6.50;;;16.60;99.90;;;;;;5070335;28;20024;-82
2021/08/02 06:53:16;;;;;;;8.80;6.35;;;16.70;99.90;;;;;;5072614;28;20490;-81
2021/08/02 06:55:42;;;;;;;7.10;5.63;;;18.80;99.90;;;;;;5070330;28;20028;-81
2021/08/02 06:58:08;;;;;;;9.48;5.85;;;17.00;99.90;;;;;;5072020;28;20028;-84
2021/08/02 07:00:34;;;;;;;10.30;6.05;;;17.20;99.90;;;;;;5075066;28;20556;-89
2021/08/02 07:03:00;;;;;;;7.45;6.00;;;;;;;;;;5072430;28;20108;-83
2021/08/02 07:05:27;;;;;;;7.60;6.13;;;17.20;99.90;;;;;;5071167;28;20086;-82
2021/08/02 07:07:53;;;;;;;7.07;5.85;;;;;;;;;;5066619;28;20029;-84
2021/08/02 07:10:19;;;;;;;10.90;6.13;;;;;;;;;;5071242;28;20368;-81
2021/08/02 07:12:45;;;;;;;8.45;5.97;;;17.40;99.90;;;;;;5064351;28;20475;-82
2021/08/02 07:15:10;;;;;;;7.93;6.18;;;17.50;99.90;;;;;;5072335;28;20111;-83
2021/08/02 07:17:36;;;;;;;7.65;6.25;;;17.60;99.90;;;;;;5070832;28;20112;-82
2021/08/02 07:20:02;;;;;;;9.88;6.18;;;17.80;99.90;;;;;;5067236;28;20075;-81
2021/08/02 07:22:28;;;;;;;7.30;6.18;;;17.90;99.90;;;;;;5063559;28;20125;-82
2021/08/02 07:24:53;;;;;;;8.43;6.47;;;18.10;99.90;;;;;;5066177;28;20458;-83
2021/08/02 07:27:19;;;;;;;9.75;7.05;;;18.40;99.90;;;;;;5063232;28;20043;-82
2021/08/02 07:29:44;;;;;;;9.63;7.32;;;19.10;99.90;;;;;;5064382;28;20055;-82
2021/08/02 07:32:10;;;;;;;12.65;7.88;;;18.40;99.90;;;;;;5065237;28;20033;-83
2021/08/02 07:34:36;;;;;;;7.78;6.57;;;18.40;99.90;;;;;;5065506;28;20025;-83
2021/08/02 07:37:01;;;;;;;6.60;5.43;;;18.60;99.90;;;;;;5067520;28;20112;-82
2021/08/02 07:39:28;;;;;;;6.45;4.40;;;18.50;99.90;;;;;;5070298;28;20024;-80
2021/08/02 07:41:54;;;;;;;5.22;4.03;;;19.10;99.90;;;;;;5073641;28;20031;-81
2021/08/02 07:44:19;;;;;;;4.63;3.35;;;18.60;99.90;;;;;;5075663;28;20061;-80
2021/08/02 07:46:45;;;;;;;5.05;2.80;;;18.70;99.90;;;;;;5076024;28;20024;-82
2021/08/02 07:49:11;;;;;;;5.35;3.13;;;18.90;99.90;;;;;;5085534;28;20045;-82
2021/08/02 07:51:36;;;;;;;4.25;2.70;;;19.30;99.90;;;;;;5079658;28;20039;-85
2021/08/02 07:54:03;;;;;;;4.15;2.80;;;18.90;99.90;;;;;;5064847;28;20497;-80
2021/08/02 07:56:29;;;;;;;4.18;3.08;;;19.10;99.90;;;;;;5071213;28;20036;-78
2021/08/02 07:58:56;;;;;;;3.38;2.58;;;19.10;99.90;;;;;;5070299;28;20209;-78
2021/08/02 08:01:22;;;;;;;3.95;2.67;;;;;;;;;;5067696;28;20568;-80
2021/08/02 08:03:47;;;;;;;4.15;2.47;;;19.20;99.90;;;;;;5063174;28;20032;-80
2021/08/02 08:06:13;;;;;;;5.93;2.60;;;19.20;99.90;;;;;;5066241;28;20028;-83
2021/08/02 08:08:39;;;;;;;5.18;2.70;;;20.80;99.90;;;;;;5069484;28;20501;-80
2021/08/02 08:11:04;;;;;;;4.78;2.60;;;21.00;99.90;;;;;;5072830;28;20035;-81
2021/08/02 08:13:30;;;;;;;4.10;2.40;;;19.40;99.90;;;;;;5072105;28;20490;-81
2021/08/02 08:15:56;;;;;;;4.75;3.10;;;19.60;99.90;;;;;;5076403;28;20028;-81
2021/08/02 08:18:21;;;;;;;5.65;2.50;;;19.80;99.90;;;;;;5073024;28;20028;-80
2021/08/02 08:20:47;;;;;;;4.57;2.47;;;19.80;99.90;;;;;;5072618;28;20029;-81
2021/08/02 08:23:13;;;;;;;4.68;2.72;;;;;;;;;;5071491;28;20044;-80
2021/08/02 08:25:39;;;;;;;5.57;2.47;;;19.90;99.90;;;;;;5073682;28;20039;-82
2021/08/02 08:28:05;;;;;;;4.78;2.33;;;;;;;;;;5072129;28;20032;-80
2021/08/02 08:30:31;;;;;;;4.00;2.35;;;19.60;99.90;;;;;;5067692;28;20039;-80
2021/08/02 08:32:56;;;;;;;3.67;2.20;;;19.60;99.90;;;;;;5072684;28;20032;-82
2021/08/02 08:35:22;;;;;;;4.38;2.00;;;;;;;;;;5071011;28;20028;-82
2021/08/02 08:37:49;;;;;;;4.43;2.40;;;;;;;;;;5070299;28;20025;-80
2021/08/02 08:40:15;;;;;;;3.63;2.47;;;20.00;99.90;;;;;;5063558;28;20033;-81
2021/08/02 08:42:42;;;;;;;4.03;2.30;;;20.20;99.90;;;;;;5058823;28;20046;-80
2021/08/02 08:45:11;;;;;;;6.00;2.60;;;20.20;99.90;;;;;;5061453;28;20024;-81
2021/08/02 08:47:37;;;;;;;6.83;2.60;;;;;;;;;;5063297;28;20029;-78
2021/08/02 08:50:07;;;;;;;3.13;2.30;;;20.30;99.90;;;;;;5059438;28;20037;-79
2021/08/02 08:52:39;;;;;;;8.18;3.08;;;20.00;99.90;;;;;;5054779;28;20081;-81
2021/08/02 08:55:10;;;;;;;3.10;2.08;;;20.00;99.90;;;;;;5062794;28;20032;-81
2021/08/02 08:57:36;;;;;;;4.47;2.42;;;20.00;99.90;;;;;;5066212;28;20328;-80
2021/08/02 09:00:03;;;;;;;5.20;2.80;;;20.10;99.90;;;;;;5063295;28;20050;-82
2021/08/02 09:02:29;;;;;;;2.63;1.70;;;20.30;99.90;;;;;;5066591;28;20024;-81
2021/08/02 09:04:58;;;;;;;5.15;2.00;;;20.70;99.90;;;;;;5062887;28;20036;-81
2021/08/02 09:07:39;;;;;;;2.90;1.90;;;20.90;99.00;;;;;;5058365;28;20499;-80
2021/08/02 09:10:07;;;;;;;3.05;2.00;;;20.80;98.90;;;;;;5062653;28;20052;-79
2021/08/02 09:12:33;;;;;;;2.95;1.75;;;21.00;98.90;;;;;;5058194;28;20033;-80
2021/08/02 09:15:03;;;;;;;2.78;1.77;;;21.30;98.30;;;;;;5061063;28;20031;-79
2021/08/02 09:17:33;;;;;;;3.22;1.52;;;21.10;97.50;;;;;;5061833;28;20078;-81
2021/08/02 09:19:59;;;;;;;;;;;21.10;97.80;;;;;;5065516;28;20020;-82
2021/08/02 09:22:36;;;;;;;2.63;1.60;;;21.20;98.10;;;;;;5063537;28;19931;-80
2021/08/02 09:25:23;;;;;;;2.97;1.92;;;22.10;97.80;;;;;;5062486;28;20029;-83
2021/08/02 09:27:50;;;;;;;3.00;1.58;;;21.80;96.40;;;;;;5067195;28;20017;-81
2021/08/02 09:30:17;;;;;;;2.33;1.50;;;21.70;95.90;;;;;;5057883;28;20029;-81
2021/08/02 09:32:52;;;;;;;3.22;1.85;;;21.70;96.40;;;;;;5054776;28;20033;-81
2021/08/02 09:35:42;;;;;;;2.25;1.55;;;21.90;95.50;;;;;;5055612;28;20058;-79
2021/08/02 09:38:09;;;;;;;;;;;21.90;95.30;;;;;;5065165;28;20043;-81
2021/08/02 09:40:46;;;;;;;2.65;1.60;;;21.80;95.90;;;;;;5055922;28;19952;-83
2021/08/02 09:43:17;;;;;;;2.80;1.83;;;21.80;96.20;;;;;;5058851;28;20111;-80
2021/08/02 09:45:51;;;;;;;2.60;1.70;;;21.80;96.00;;;;;;5063071;28;20024;-81
2021/08/02 09:48:19;;;;;;;2.80;1.67;;;21.60;96.00;;;;;;5061598;28;20033;-80
2021/08/02 09:50:46;;;;;;;3.17;1.67;;;21.60;96.30;;;;;;5082571;28;20036;-79
2021/08/02 09:53:19;;;;;;;2.33;1.45;;;21.70;96.10;;;;;;5064222;28;20089;-82
2021/08/02 09:55:48;;;;;;;3.72;1.80;;;22.10;95.30;;;;;;5060373;28;20029;-79
2021/08/02 09:58:21;;;;;;;2.00;1.38;;;22.30;95.10;;;;;;5063568;28;20033;-80
2021/08/02 10:00:47;;;;;;;3.78;1.77;;;22.90;95.30;;;;;;5076675;28;20053;-80
2021/08/02 10:03:16;;;;;;;3.58;1.70;;;22.50;98.10;;;;;;5055912;28;20067;-80
2021/08/02 10:05:42;;;;;;;2.55;1.60;;;22.40;95.00;;;;;;5060132;28;20092;-80
2021/08/02 10:08:09;;;;;;;6.70;1.75;;;;;;;;;;5059957;28;20028;-78
2021/08/02 10:10:38;;;;;;;3.33;1.45;;;22.30;93.80;;;;;;5056948;28;20131;-81
2021/08/02 10:13:05;;;;;;;2.50;1.65;;;22.10;94.60;;;;;;5061554;28;20032;-81
2021/08/02 10:15:31;;;;;;;3.40;1.70;;;22.30;95.30;;;;;;5061457;28;20037;-81
2021/08/02 10:18:01;;;;;;;2.53;1.58;;;21.70;95.20;;;;;;5054720;28;20092;-82
2021/08/02 10:20:34;;;;;;;;;;;22.50;95.60;;;;;;5061145;28;20040;-82
2021/08/02 10:23:03;;;;;;;2.85;1.55;;;21.60;95.20;;;;;;5058157;28;19915;-80
2021/08/02 10:25:34;;;;;;;2.15;1.40;;;21.70;95.20;;;;;;5065252;28;20024;-80
2021/08/02 10:28:14;;;;;;;2.47;1.55;;;21.90;95.00;;;;;;5059771;28;20029;-81
2021/08/02 10:30:41;;;;;;;2.42;1.48;;;22.20;95.10;;;;;;5058244;28;20036;-82
2021/08/02 10:33:08;;;;;;;2.75;1.45;;;23.00;94.50;;;;;;5059081;28;20024;-82
2021/08/02 10:35:35;;;;;;;2.80;1.63;;;23.30;93.20;;;;;;5065863;28;20033;-84
2021/08/02 10:38:03;;;;;;;3.58;1.60;;;23.70;91.80;;;;;;5076445;28;20051;-81
2021/08/02 10:40:29;;;;;;;3.10;1.55;;;23.50;91.60;;;;;;5068746;28;20174;-83
2021/08/02 10:42:55;;;;;;;3.10;1.65;;;;;;;;;;5074765;28;20092;-82
2021/08/02 10:45:31;;;;;;;3.38;1.52;;;;;;;;;;5073478;28;20264;-83
2021/08/02 10:47:57;;;;;;;4.18;1.50;;;;;;;;;;5072789;28;20112;-83
2021/08/02 10:50:25;;;;;;;3.58;1.60;;;22.90;91.40;;;;;;5077650;28;20024;-84
2021/08/02 10:52:53;;;;;;;3.92;2.00;;;23.10;90.90;;;;;;5078474;28;20103;-81
2021/08/02 10:55:20;;;;;;;2.03;1.58;;;;;;;;;;5080784;28;20350;-82
2021/08/02 10:57:59;;;;;;;3.63;1.65;;;23.30;90.80;;;;;;5080920;28;20028;-82
2021/08/02 11:00:25;;;;;;;3.95;1.90;;;23.30;90.60;;;;;;5079088;28;20091;-79
2021/08/02 11:02:53;;;;;;;4.15;1.50;;;23.30;90.80;;;;;;5070253;28;20123;-80
2021/08/02 11:05:20;;;;;;;3.65;1.60;;;22.80;91.00;;;;;;5083097;28;20024;-83
2021/08/02 11:07:46;;;;;;;4.13;2.03;;;;;;;;;;5086666;28;20021;-82
2021/08/02 11:10:15;;;;;;;2.90;1.48;;;22.70;91.60;;;;;;5085174;28;20115;-80
2021/08/02 11:12:45;;;;;;;3.47;1.50;;;22.70;92.30;;;;;;5068531;28;20032;-80
2021/08/02 11:15:12;;;;;;;3.30;1.60;;;;;;;;;;5064209;28;20330;-80
2021/08/02 11:17:41;;;;;;;3.80;1.80;;;22.10;93.50;;;;;;5069696;28;20039;-79
2021/08/02 11:20:09;;;;;;;2.90;1.70;;;23.20;93.90;;;;;;5072963;28;20035;-81
2021/08/02 11:22:49;;;;;;;2.60;1.60;;;21.90;94.10;;;;;;5076986;28;20078;-81
2021/08/02 11:25:21;;;;;;;2.60;1.58;;;21.50;95.30;;;;;;5078199;28;20032;-82
2021/08/02 11:27:55;;;;;;;1.90;1.50;;;21.50;95.60;;;;;;5068648;28;20029;-79
2021/08/02 11:30:22;;;;;;;3.47;1.60;;;21.30;96.20;;;;;;5068796;28;20102;-83
2021/08/02 11:32:48;;;;;;;3.78;1.60;;;;;;;;;;5071006;28;20081;-82
2021/08/02 11:35:15;;;;;;;3.53;1.50;;;21.30;97.00;;;;;;5069855;28;20402;-82
2021/08/02 11:37:48;;;;;;;3.63;1.80;;;21.50;97.10;;;;;;5069908;28;20032;-83
2021/08/02 11:40:14;;;;;;;2.90;1.58;;;;;;;;;;5063575;28;20037;-84
2021/08/02 11:42:42;;;;;;;7.20;2.60;;;21.70;99.70;;;;;;5069721;28;20270;-82
2021/08/02 11:45:09;;;;;;;3.72;2.10;;;21.70;99.90;;;;;;5065032;28;20504;-83
2021/08/02 11:47:41;;;;;;;7.43;2.35;;;20.50;99.90;;;;;;5073703;28;20016;-84
2021/08/02 11:50:08;;;;;;;2.40;1.75;;;19.90;99.90;;;;;;5074620;28;20429;-83
2021/08/02 11:52:37;;;;;;;4.47;2.15;;;19.90;99.90;;;;;;5072129;28;20028;-85
2021/08/02 11:55:03;;;;;;;6.13;2.97;;;;;;;;;;5073617;28;20028;-82
2021/08/02 11:57:29;;;;;;;7.68;4.20;;;;;;;;;;5085071;28;20025;-83
2021/08/02 12:00:06;;;;;;;8.05;3.10;;;;;;;;;;5067522;28;20083;-82
2021/08/02 12:02:35;;;;;;;6.32;3.40;;;;;;;;;;5072332;28;20077;-83
2021/08/02 12:05:02;;;;;;;7.15;3.78;;;17.90;99.90;;;;;;5069528;28;20573;-83
2021/08/02 12:07:28;;;;;;;6.03;3.88;;;;;;;;;;5071555;28;20032;-84
2021/08/02 12:09:57;;;;;;;11.27;3.80;;;;;;;;;;5069174;28;20082;-83
2021/08/02 12:12:24;;;;;;;6.17;3.20;;;17.70;99.90;;;;;;5061832;28;20116;-84
2021/08/02 12:14:53;;;;;;;5.05;3.10;;;;;;;;;;5067049;28;20041;-84
2021/08/02 12:17:19;;;;;;;7.18;3.35;;;;;;;;;;5068422;28;20510;-82
2021/08/02 12:19:48;;;;;;;4.45;2.67;;;17.90;99.90;;;;;;5063269;28;20453;-82
2021/08/02 12:22:14;;;;;;;6.90;2.85;;;18.30;99.90;;;;;;5065335;28;20223;-82
2021/08/02 12:24:59;;;;;;;4.60;2.92;;;;;;;;;;5073803;28;20198;-81
2021/08/02 12:27:26;;;;;;;3.30;2.40;;;19.10;99.90;;;;;;5066977;28;20033;-82
2021/08/02 12:30:02;;;;;;;5.35;2.63;;;19.40;99.90;;;;;;5082057;28;20020;-81
2021/08/02 12:32:45;;;;;;;4.15;1.80;;;19.40;99.90;;;;;;5054075;28;20017;-80
2021/08/02 12:35:13;;;;;;;2.60;1.70;;;19.50;99.90;;;;;;5067597;28;20129;-81
2021/08/02 12:37:39;;;;;;;3.70;1.90;;;19.70;99.90;;;;;;5071573;28;20044;-83
2021/08/02 12:40:09;;;;;;;3.50;2.30;;;19.70;99.90;;;;;;5068851;28;20059;-81
2021/08/02 12:42:39;;;;;;;2.85;1.70;;;19.40;99.90;;;;;;5075552;28;20062;-81
2021/08/02 12:45:07;;;;;;;2.58;1.85;;;19.40;99.90;;;;;;5069403;28;20053;-81
2021/08/02 12:47:33;;;;;;;5.07;2.53;;;;;;;;;;5069836;28;20024;-81
2021/08/02 12:49:59;;;;;;;4.82;2.90;;;;;;;;;;5072483;28;20025;-83
2021/08/02 12:52:27;;;;;;;4.60;2.08;;;19.40;99.90;;;;;;5065520;28;20020;-79
2021/08/02 12:54:55;;;;;;;4.88;2.20;;;;;;;;;;5063426;28;20043;-80
2021/08/02 12:57:21;;;;;;;4.82;2.67;;;;;;;;;;5059960;28;20053;-80
2021/08/02 12:59:47;;;;;;;4.50;2.75;;;19.40;99.90;;;;;;5064291;28;20119;-80
2021/08/02 13:02:13;;;;;;;5.47;3.00;;;19.50;99.90;;;;;;5063510;28;20252;-81
2021/08/02 13:04:38;;;;;;;4.13;2.10;;;19.50;99.90;;;;;;5069616;28;20281;-80
2021/08/02 13:07:04;;;;;;;4.63;2.83;;;19.60;99.90;;;;;;5059743;28;20064;-80